sensor_id;sensor_type;location;lat;lon;timestamp;P1;durP1;ratioP1;P2;durP2;ratioP2
11582;SDS011;34299;50.820;4.548;2024-01-15T00:00:08;12.30;;;6.77;;
11582;SDS011;34299;50.820;4.548;2024-01-15T00:02:36;13.33;;;7.63;;
11582;SDS011;34299;50.820;4.548;2024-01-15T00:05:04;14.10;;;5.90;;
11582;SDS011;34299;50.820;4.548;2024-01-15T00:07:31;17.10;;;8.10;;
11582;SDS011;34299;50.820;4.548;2024-01-15T00:09:58;14.10;;;7.03;;
11582;SDS011;34299;50.820;4.548;2024-01-15T00:12:25;10.80;;;5.93;;
11582;SDS011;34299;50.820;4.548;2024-01-15T00:14:53;13.67;;;5.77;;
11582;SDS011;34299;50.820;4.548;2024-01-15T00:17:20;12.60;;;5.63;;
11582;SDS011;34299;50.820;4.548;2024-01-15T00:19:47;12.07;;;5.27;;
11582;SDS011;34299;50.820;4.548;2024-01-15T00:22:15;13.03;;;6.47;;
11582;SDS011;34299;50.820;4.548;2024-01-15T00:24:42;14.80;;;5.83;;
11582;SDS011;34299;50.820;4.548;2024-01-15T00:27:09;10.50;;;5.60;;
11582;SDS011;34299;50.820;4.548;2024-01-15T00:29:36;13.20;;;6.17;;
11582;SDS011;34299;50.820;4.548;2024-01-15T00:32:03;12.40;;;7.27;;
11582;SDS011;34299;50.820;4.548;2024-01-15T00:34:30;17.50;;;6.93;;
11582;SDS011;34299;50.820;4.548;2024-01-15T00:36:57;14.30;;;5.63;;
11582;SDS011;34299;50.820;4.548;2024-01-15T00:39:26;11.97;;;4.90;;
11582;SDS011;34299;50.820;4.548;2024-01-15T00:41:53;12.93;;;8.10;;
11582;SDS011;34299;50.820;4.548;2024-01-15T00:44:19;11.53;;;5.33;;
11582;SDS011;34299;50.820;4.548;2024-01-15T00:46:46;11.67;;;5.70;;
11582;SDS011;34299;50.820;4.548;2024-01-15T00:49:13;13.07;;;5.57;;
11582;SDS011;34299;50.820;4.548;2024-01-15T00:51:40;12.03;;;5.40;;
11582;SDS011;34299;50.820;4.548;2024-01-15T00:54:07;12.83;;;6.67;;
11582;SDS011;34299;50.820;4.548;2024-01-15T00:56:36;9.83;;;5.37;;
11582;SDS011;34299;50.820;4.548;2024-01-15T00:59:03;10.10;;;5.33;;
11582;SDS011;34299;50.820;4.548;2024-01-15T01:01:30;8.90;;;4.13;;
11582;SDS011;34299;50.820;4.548;2024-01-15T01:03:57;12.23;;;6.50;;
11582;SDS011;34299;50.820;4.548;2024-01-15T01:06:24;6.77;;;4.13;;
11582;SDS011;34299;50.820;4.548;2024-01-15T01:08:51;8.87;;;4.67;;
11582;SDS011;34299;50.820;4.548;2024-01-15T01:11:18;8.57;;;5.07;;
11582;SDS011;34299;50.820;4.548;2024-01-15T01:13:46;5.43;;;3.97;;
11582;SDS011;34299;50.820;4.548;2024-01-15T01:16:13;7.00;;;3.97;;
11582;SDS011;34299;50.820;4.548;2024-01-15T01:18:40;7.00;;;4.47;;
11582;SDS011;34299;50.820;4.548;2024-01-15T01:21:07;7.03;;;4.57;;
11582;SDS011;34299;50.820;4.548;2024-01-15T01:23:34;6.73;;;4.53;;
11582;SDS011;34299;50.820;4.548;2024-01-15T01:26:01;8.20;;;3.60;;
11582;SDS011;34299;50.820;4.548;2024-01-15T01:28:28;6.83;;;3.77;;
11582;SDS011;34299;50.820;4.548;2024-01-15T01:30:56;11.20;;;5.20;;
11582;SDS011;34299;50.820;4.548;2024-01-15T01:33:23;8.77;;;3.70;;
11582;SDS011;34299;50.820;4.548;2024-01-15T01:35:50;6.77;;;3.33;;
11582;SDS011;34299;50.820;4.548;2024-01-15T01:38:18;6.40;;;3.93;;
11582;SDS011;34299;50.820;4.548;2024-01-15T01:40:45;8.30;;;4.60;;
11582;SDS011;34299;50.820;4.548;2024-01-15T01:43:12;9.47;;;4.73;;
11582;SDS011;34299;50.820;4.548;2024-01-15T01:45:38;4.47;;;3.80;;
11582;SDS011;34299;50.820;4.548;2024-01-15T01:48:07;7.97;;;3.93;;
11582;SDS011;34299;50.820;4.548;2024-01-15T01:50:34;9.97;;;3.67;;
11582;SDS011;34299;50.820;4.548;2024-01-15T01:53:01;7.07;;;3.80;;
11582;SDS011;34299;50.820;4.548;2024-01-15T01:55:30;5.30;;;3.80;;
11582;SDS011;34299;50.820;4.548;2024-01-15T01:57:59;9.70;;;3.60;;
11582;SDS011;34299;50.820;4.548;2024-01-15T02:00:28;10.17;;;4.80;;
11582;SDS011;34299;50.820;4.548;2024-01-15T02:02:55;7.53;;;4.07;;
11582;SDS011;34299;50.820;4.548;2024-01-15T02:05:23;8.87;;;4.23;;
11582;SDS011;34299;50.820;4.548;2024-01-15T02:07:51;7.97;;;3.83;;
11582;SDS011;34299;50.820;4.548;2024-01-15T02:10:18;8.03;;;3.70;;
11582;SDS011;34299;50.820;4.548;2024-01-15T02:12:45;5.10;;;3.70;;
11582;SDS011;34299;50.820;4.548;2024-01-15T02:15:13;4.50;;;3.07;;
11582;SDS011;34299;50.820;4.548;2024-01-15T02:17:59;7.67;;;4.67;;
11582;SDS011;34299;50.820;4.548;2024-01-15T02:20:29;3.00;;;2.23;;
11582;SDS011;34299;50.820;4.548;2024-01-15T02:23:03;4.80;;;3.20;;
11582;SDS011;34299;50.820;4.548;2024-01-15T02:25:33;5.90;;;3.73;;
11582;SDS011;34299;50.820;4.548;2024-01-15T02:28:01;8.20;;;4.50;;
11582;SDS011;34299;50.820;4.548;2024-01-15T02:30:28;6.40;;;3.40;;
11582;SDS011;34299;50.820;4.548;2024-01-15T02:32:57;4.90;;;2.70;;
11582;SDS011;34299;50.820;4.548;2024-01-15T02:35:24;5.17;;;3.73;;
11582;SDS011;34299;50.820;4.548;2024-01-15T02:37:51;3.63;;;3.13;;
11582;SDS011;34299;50.820;4.548;2024-01-15T02:40:19;7.47;;;3.33;;
11582;SDS011;34299;50.820;4.548;2024-01-15T02:42:46;6.33;;;4.37;;
11582;SDS011;34299;50.820;4.548;2024-01-15T02:45:13;6.53;;;3.17;;
11582;SDS011;34299;50.820;4.548;2024-01-15T02:47:40;7.43;;;3.37;;
11582;SDS011;34299;50.820;4.548;2024-01-15T02:50:07;3.40;;;2.40;;
11582;SDS011;34299;50.820;4.548;2024-01-15T02:52:34;6.33;;;3.77;;
11582;SDS011;34299;50.820;4.548;2024-01-15T02:55:01;5.67;;;2.73;;
11582;SDS011;34299;50.820;4.548;2024-01-15T02:57:29;7.20;;;3.77;;
11582;SDS011;34299;50.820;4.548;2024-01-15T02:59:56;5.33;;;3.43;;
11582;SDS011;34299;50.820;4.548;2024-01-15T03:02:23;4.27;;;2.87;;
11582;SDS011;34299;50.820;4.548;2024-01-15T03:04:50;3.80;;;2.87;;
11582;SDS011;34299;50.820;4.548;2024-01-15T03:07:17;5.00;;;2.77;;
11582;SDS011;34299;50.820;4.548;2024-01-15T03:09:44;6.23;;;3.20;;
11582;SDS011;34299;50.820;4.548;2024-01-15T03:12:11;6.03;;;3.67;;
11582;SDS011;34299;50.820;4.548;2024-01-15T03:14:39;5.27;;;3.17;;
11582;SDS011;34299;50.820;4.548;2024-01-15T03:17:06;4.80;;;3.43;;
11582;SDS011;34299;50.820;4.548;2024-01-15T03:19:34;4.47;;;3.57;;
11582;SDS011;34299;50.820;4.548;2024-01-15T03:22:01;5.87;;;3.40;;
11582;SDS011;34299;50.820;4.548;2024-01-15T03:24:28;6.30;;;3.93;;
11582;SDS011;34299;50.820;4.548;2024-01-15T03:26:55;5.57;;;3.63;;
11582;SDS011;34299;50.820;4.548;2024-01-15T03:29:23;7.50;;;5.57;;
11582;SDS011;34299;50.820;4.548;2024-01-15T03:31:51;9.47;;;4.90;;
11582;SDS011;34299;50.820;4.548;2024-01-15T03:34:18;9.07;;;4.97;;
11582;SDS011;34299;50.820;4.548;2024-01-15T03:36:45;7.10;;;4.60;;
11582;SDS011;34299;50.820;4.548;2024-01-15T03:39:12;8.47;;;4.90;;
11582;SDS011;34299;50.820;4.548;2024-01-15T03:41:39;8.73;;;4.23;;
11582;SDS011;34299;50.820;4.548;2024-01-15T03:44:06;10.73;;;5.23;;
11582;SDS011;34299;50.820;4.548;2024-01-15T03:46:33;8.07;;;5.70;;
11582;SDS011;34299;50.820;4.548;2024-01-15T03:49:01;9.43;;;5.17;;
11582;SDS011;34299;50.820;4.548;2024-01-15T03:51:28;9.07;;;5.40;;
11582;SDS011;34299;50.820;4.548;2024-01-15T03:53:55;7.33;;;5.40;;
11582;SDS011;34299;50.820;4.548;2024-01-15T03:56:22;10.23;;;4.40;;
11582;SDS011;34299;50.820;4.548;2024-01-15T03:58:49;10.03;;;5.17;;
11582;SDS011;34299;50.820;4.548;2024-01-15T04:01:16;8.77;;;5.23;;
11582;SDS011;34299;50.820;4.548;2024-01-15T04:03:43;9.63;;;4.80;;
11582;SDS011;34299;50.820;4.548;2024-01-15T04:06:11;9.80;;;4.80;;
11582;SDS011;34299;50.820;4.548;2024-01-15T04:08:38;10.13;;;5.77;;
11582;SDS011;34299;50.820;4.548;2024-01-15T04:11:05;8.47;;;4.83;;
11582;SDS011;34299;50.820;4.548;2024-01-15T04:13:32;7.77;;;5.10;;
11582;SDS011;34299;50.820;4.548;2024-01-15T04:15:59;6.63;;;4.33;;
11582;SDS011;34299;50.820;4.548;2024-01-15T04:18:26;13.40;;;5.73;;
11582;SDS011;34299;50.820;4.548;2024-01-15T04:20:53;14.03;;;6.30;;
11582;SDS011;34299;50.820;4.548;2024-01-15T04:23:22;13.57;;;5.03;;
11582;SDS011;34299;50.820;4.548;2024-01-15T04:25:49;9.67;;;5.97;;
11582;SDS011;34299;50.820;4.548;2024-01-15T04:28:15;9.13;;;6.20;;
11582;SDS011;34299;50.820;4.548;2024-01-15T04:30:42;12.43;;;5.90;;
11582;SDS011;34299;50.820;4.548;2024-01-15T04:33:09;11.30;;;6.20;;
11582;SDS011;34299;50.820;4.548;2024-01-15T04:35:37;10.43;;;5.97;;
11582;SDS011;34299;50.820;4.548;2024-01-15T04:38:04;9.17;;;5.70;;
11582;SDS011;34299;50.820;4.548;2024-01-15T04:40:32;9.07;;;4.77;;
11582;SDS011;34299;50.820;4.548;2024-01-15T04:42:59;13.27;;;7.50;;
11582;SDS011;34299;50.820;4.548;2024-01-15T04:45:26;14.53;;;7.67;;
11582;SDS011;34299;50.820;4.548;2024-01-15T04:47:53;12.63;;;6.63;;
11582;SDS011;34299;50.820;4.548;2024-01-15T04:50:22;12.00;;;6.57;;
11582;SDS011;34299;50.820;4.548;2024-01-15T04:52:49;8.17;;;4.40;;
11582;SDS011;34299;50.820;4.548;2024-01-15T04:55:16;14.10;;;6.63;;
11582;SDS011;34299;50.820;4.548;2024-01-15T04:57:44;11.97;;;7.03;;
11582;SDS011;34299;50.820;4.548;2024-01-15T05:00:11;8.80;;;5.60;;
11582;SDS011;34299;50.820;4.548;2024-01-15T05:02:39;13.57;;;5.27;;
11582;SDS011;34299;50.820;4.548;2024-01-15T05:05:06;11.93;;;5.30;;
11582;SDS011;34299;50.820;4.548;2024-01-15T05:07:33;13.07;;;6.03;;
11582;SDS011;34299;50.820;4.548;2024-01-15T05:10:00;7.57;;;5.00;;
11582;SDS011;34299;50.820;4.548;2024-01-15T05:12:27;10.50;;;5.73;;
11582;SDS011;34299;50.820;4.548;2024-01-15T05:14:56;12.67;;;6.37;;
11582;SDS011;34299;50.820;4.548;2024-01-15T05:17:23;7.63;;;4.37;;
11582;SDS011;34299;50.820;4.548;2024-01-15T05:19:50;8.77;;;4.43;;
11582;SDS011;34299;50.820;4.548;2024-01-15T05:22:16;7.47;;;3.67;;
11582;SDS011;34299;50.820;4.548;2024-01-15T05:24:43;6.53;;;3.73;;
11582;SDS011;34299;50.820;4.548;2024-01-15T05:27:10;7.87;;;3.10;;
11582;SDS011;34299;50.820;4.548;2024-01-15T05:29:37;4.17;;;3.27;;
11582;SDS011;34299;50.820;4.548;2024-01-15T05:32:05;6.63;;;3.33;;
11582;SDS011;34299;50.820;4.548;2024-01-15T05:34:32;6.63;;;3.50;;
11582;SDS011;34299;50.820;4.548;2024-01-15T05:36:59;4.83;;;3.30;;
11582;SDS011;34299;50.820;4.548;2024-01-15T05:39:26;4.33;;;3.33;;
11582;SDS011;34299;50.820;4.548;2024-01-15T05:41:53;6.50;;;2.83;;
11582;SDS011;34299;50.820;4.548;2024-01-15T05:44:20;3.97;;;2.07;;
11582;SDS011;34299;50.820;4.548;2024-01-15T05:46:47;2.90;;;2.17;;
11582;SDS011;34299;50.820;4.548;2024-01-15T05:49:15;4.90;;;2.30;;
11582;SDS011;34299;50.820;4.548;2024-01-15T05:51:42;4.97;;;3.00;;
11582;SDS011;34299;50.820;4.548;2024-01-15T05:54:09;4.33;;;2.80;;
11582;SDS011;34299;50.820;4.548;2024-01-15T05:56:36;4.97;;;2.73;;
11582;SDS011;34299;50.820;4.548;2024-01-15T05:59:03;2.50;;;1.90;;
11582;SDS011;34299;50.820;4.548;2024-01-15T06:01:30;2.40;;;1.77;;
11582;SDS011;34299;50.820;4.548;2024-01-15T06:03:57;3.17;;;2.13;;
11582;SDS011;34299;50.820;4.548;2024-01-15T06:06:25;4.20;;;1.60;;
11582;SDS011;34299;50.820;4.548;2024-01-15T06:08:52;5.13;;;2.70;;
11582;SDS011;34299;50.820;4.548;2024-01-15T06:11:19;4.10;;;2.10;;
11582;SDS011;34299;50.820;4.548;2024-01-15T06:13:46;2.67;;;2.43;;
11582;SDS011;34299;50.820;4.548;2024-01-15T06:16:13;4.20;;;2.87;;
11582;SDS011;34299;50.820;4.548;2024-01-15T06:18:41;2.30;;;1.93;;
11582;SDS011;34299;50.820;4.548;2024-01-15T06:21:08;4.47;;;2.27;;
11582;SDS011;34299;50.820;4.548;2024-01-15T06:23:39;5.07;;;2.30;;
11582;SDS011;34299;50.820;4.548;2024-01-15T06:26:06;2.77;;;1.33;;
11582;SDS011;34299;50.820;4.548;2024-01-15T06:28:33;1.67;;;1.40;;
11582;SDS011;34299;50.820;4.548;2024-01-15T06:31:00;5.73;;;2.30;;
11582;SDS011;34299;50.820;4.548;2024-01-15T06:33:27;3.33;;;1.20;;
11582;SDS011;34299;50.820;4.548;2024-01-15T06:35:54;4.00;;;0.97;;
11582;SDS011;34299;50.820;4.548;2024-01-15T06:38:21;4.13;;;1.77;;
11582;SDS011;34299;50.820;4.548;2024-01-15T06:40:49;3.33;;;1.40;;
11582;SDS011;34299;50.820;4.548;2024-01-15T06:43:17;2.67;;;1.43;;
11582;SDS011;34299;50.820;4.548;2024-01-15T06:45:44;1.87;;;1.40;;
11582;SDS011;34299;50.820;4.548;2024-01-15T06:48:11;2.53;;;1.90;;
11582;SDS011;34299;50.820;4.548;2024-01-15T06:50:39;1.43;;;1.33;;
11582;SDS011;34299;50.820;4.548;2024-01-15T06:53:07;1.77;;;1.47;;
11582;SDS011;34299;50.820;4.548;2024-01-15T06:55:34;2.33;;;0.93;;
11582;SDS011;34299;50.820;4.548;2024-01-15T06:58:02;1.97;;;1.67;;
11582;SDS011;34299;50.820;4.548;2024-01-15T07:00:29;2.33;;;1.73;;
11582;SDS011;34299;50.820;4.548;2024-01-15T07:02:56;3.00;;;1.30;;
11582;SDS011;34299;50.820;4.548;2024-01-15T07:05:23;1.40;;;1.13;;
11582;SDS011;34299;50.820;4.548;2024-01-15T07:07:50;3.37;;;1.07;;
11582;SDS011;34299;50.820;4.548;2024-01-15T07:10:17;2.70;;;1.80;;
11582;SDS011;34299;50.820;4.548;2024-01-15T07:12:44;4.00;;;1.90;;
11582;SDS011;34299;50.820;4.548;2024-01-15T07:15:12;2.80;;;2.40;;
11582;SDS011;34299;50.820;4.548;2024-01-15T07:17:41;1.87;;;1.50;;
11582;SDS011;34299;50.820;4.548;2024-01-15T07:20:08;3.50;;;2.53;;
11582;SDS011;34299;50.820;4.548;2024-01-15T07:22:36;3.27;;;2.10;;
11582;SDS011;34299;50.820;4.548;2024-01-15T07:25:03;3.10;;;2.73;;
11582;SDS011;34299;50.820;4.548;2024-01-15T07:27:31;3.63;;;2.57;;
11582;SDS011;34299;50.820;4.548;2024-01-15T07:29:59;6.10;;;2.53;;
11582;SDS011;34299;50.820;4.548;2024-01-15T07:32:30;3.20;;;2.23;;
11582;SDS011;34299;50.820;4.548;2024-01-15T07:34:57;2.50;;;1.53;;
11582;SDS011;34299;50.820;4.548;2024-01-15T07:37:24;2.60;;;2.40;;
11582;SDS011;34299;50.820;4.548;2024-01-15T07:39:51;5.07;;;2.53;;
11582;SDS011;34299;50.820;4.548;2024-01-15T07:42:18;4.83;;;2.80;;
11582;SDS011;34299;50.820;4.548;2024-01-15T07:44:45;2.83;;;2.20;;
11582;SDS011;34299;50.820;4.548;2024-01-15T07:47:12;4.80;;;2.90;;
11582;SDS011;34299;50.820;4.548;2024-01-15T07:49:40;4.70;;;2.70;;
11582;SDS011;34299;50.820;4.548;2024-01-15T07:52:08;2.57;;;2.10;;
11582;SDS011;34299;50.820;4.548;2024-01-15T07:54:35;4.57;;;2.43;;
11582;SDS011;34299;50.820;4.548;2024-01-15T07:57:02;4.30;;;3.53;;
11582;SDS011;34299;50.820;4.548;2024-01-15T07:59:29;3.53;;;2.47;;
11582;SDS011;34299;50.820;4.548;2024-01-15T08:01:58;4.03;;;2.40;;
11582;SDS011;34299;50.820;4.548;2024-01-15T08:04:25;2.30;;;1.97;;
11582;SDS011;34299;50.820;4.548;2024-01-15T08:06:53;3.43;;;2.13;;
11582;SDS011;34299;50.820;4.548;2024-01-15T08:09:21;5.77;;;3.57;;
11582;SDS011;34299;50.820;4.548;2024-01-15T08:11:49;2.87;;;2.33;;
11582;SDS011;34299;50.820;4.548;2024-01-15T08:14:16;3.00;;;2.73;;
11582;SDS011;34299;50.820;4.548;2024-01-15T08:16:44;5.83;;;3.57;;
11582;SDS011;34299;50.820;4.548;2024-01-15T08:19:11;4.53;;;2.63;;
11582;SDS011;34299;50.820;4.548;2024-01-15T08:21:39;4.57;;;2.80;;
11582;SDS011;34299;50.820;4.548;2024-01-15T08:24:07;4.73;;;2.43;;
11582;SDS011;34299;50.820;4.548;2024-01-15T08:26:35;5.90;;;2.40;;
11582;SDS011;34299;50.820;4.548;2024-01-15T08:29:02;3.73;;;2.80;;
11582;SDS011;34299;50.820;4.548;2024-01-15T08:31:29;3.03;;;2.23;;
11582;SDS011;34299;50.820;4.548;2024-01-15T08:33:56;3.67;;;2.57;;
11582;SDS011;34299;50.820;4.548;2024-01-15T08:36:24;4.47;;;1.90;;
11582;SDS011;34299;50.820;4.548;2024-01-15T08:38:51;3.17;;;2.17;;
11582;SDS011;34299;50.820;4.548;2024-01-15T08:41:20;2.67;;;1.87;;
11582;SDS011;34299;50.820;4.548;2024-01-15T08:43:47;4.53;;;2.50;;
11582;SDS011;34299;50.820;4.548;2024-01-15T08:46:14;8.90;;;3.00;;
11582;SDS011;34299;50.820;4.548;2024-01-15T08:48:40;3.03;;;2.67;;
11582;SDS011;34299;50.820;4.548;2024-01-15T08:51:07;8.50;;;3.50;;
11582;SDS011;34299;50.820;4.548;2024-01-15T08:53:34;3.10;;;1.93;;
11582;SDS011;34299;50.820;4.548;2024-01-15T08:56:01;2.17;;;1.93;;
11582;SDS011;34299;50.820;4.548;2024-01-15T08:58:29;6.10;;;2.10;;
11582;SDS011;34299;50.820;4.548;2024-01-15T09:00:56;4.50;;;2.63;;
11582;SDS011;34299;50.820;4.548;2024-01-15T09:03:23;1.30;;;1.20;;
11582;SDS011;34299;50.820;4.548;2024-01-15T09:05:50;3.67;;;2.43;;
11582;SDS011;34299;50.820;4.548;2024-01-15T09:08:17;1.83;;;1.37;;
11582;SDS011;34299;50.820;4.548;2024-01-15T09:10:44;3.10;;;1.97;;
11582;SDS011;34299;50.820;4.548;2024-01-15T09:13:12;3.30;;;1.37;;
11582;SDS011;34299;50.820;4.548;2024-01-15T09:15:40;3.50;;;1.50;;
11582;SDS011;34299;50.820;4.548;2024-01-15T09:18:07;3.43;;;1.83;;
11582;SDS011;34299;50.820;4.548;2024-01-15T09:20:34;2.37;;;1.50;;
11582;SDS011;34299;50.820;4.548;2024-01-15T09:23:03;1.90;;;1.27;;
11582;SDS011;34299;50.820;4.548;2024-01-15T09:25:30;1.50;;;1.13;;
11582;SDS011;34299;50.820;4.548;2024-01-15T09:27:57;1.40;;;1.30;;
11582;SDS011;34299;50.820;4.548;2024-01-15T09:30:24;1.00;;;1.00;;
11582;SDS011;34299;50.820;4.548;2024-01-15T09:32:53;2.50;;;2.00;;
11582;SDS011;34299;50.820;4.548;2024-01-15T09:35:19;0.90;;;0.90;;
11582;SDS011;34299;50.820;4.548;2024-01-15T09:37:46;2.87;;;1.43;;
11582;SDS011;34299;50.820;4.548;2024-01-15T09:40:13;5.43;;;1.70;;
11582;SDS011;34299;50.820;4.548;2024-01-15T09:42:41;2.50;;;1.10;;
11582;SDS011;34299;50.820;4.548;2024-01-15T09:45:09;4.37;;;1.80;;
11582;SDS011;34299;50.820;4.548;2024-01-15T09:47:36;1.83;;;1.20;;
11582;SDS011;34299;50.820;4.548;2024-01-15T09:50:05;4.70;;;1.50;;
11582;SDS011;34299;50.820;4.548;2024-01-15T09:52:33;1.90;;;1.33;;
11582;SDS011;34299;50.820;4.548;2024-01-15T09:55:02;1.40;;;1.20;;
11582;SDS011;34299;50.820;4.548;2024-01-15T09:57:30;3.53;;;1.43;;
11582;SDS011;34299;50.820;4.548;2024-01-15T09:59:58;1.93;;;1.10;;
11582;SDS011;34299;50.820;4.548;2024-01-15T10:02:29;1.60;;;1.30;;
11582;SDS011;34299;50.820;4.548;2024-01-15T10:04:56;4.80;;;1.20;;
11582;SDS011;34299;50.820;4.548;2024-01-15T10:07:25;4.70;;;1.77;;
11582;SDS011;34299;50.820;4.548;2024-01-15T10:09:53;5.27;;;1.50;;
11582;SDS011;34299;50.820;4.548;2024-01-15T10:12:20;4.50;;;1.60;;
11582;SDS011;34299;50.820;4.548;2024-01-15T10:14:48;1.27;;;0.90;;
11582;SDS011;34299;50.820;4.548;2024-01-15T10:17:16;3.63;;;1.40;;
11582;SDS011;34299;50.820;4.548;2024-01-15T10:19:44;3.00;;;1.20;;
11582;SDS011;34299;50.820;4.548;2024-01-15T10:22:12;2.00;;;1.33;;
11582;SDS011;34299;50.820;4.548;2024-01-15T10:24:41;3.30;;;1.30;;
11582;SDS011;34299;50.820;4.548;2024-01-15T10:27:08;3.90;;;1.53;;
11582;SDS011;34299;50.820;4.548;2024-01-15T10:29:36;5.50;;;1.40;;
11582;SDS011;34299;50.820;4.548;2024-01-15T10:32:05;3.37;;;1.20;;
11582;SDS011;34299;50.820;4.548;2024-01-15T10:34:33;6.60;;;1.60;;
11582;SDS011;34299;50.820;4.548;2024-01-15T10:37:03;0.93;;;0.80;;
11582;SDS011;34299;50.820;4.548;2024-01-15T10:39:32;3.67;;;1.17;;
11582;SDS011;34299;50.820;4.548;2024-01-15T10:42:00;3.50;;;1.40;;
11582;SDS011;34299;50.820;4.548;2024-01-15T10:44:28;2.10;;;1.07;;
11582;SDS011;34299;50.820;4.548;2024-01-15T10:46:55;4.67;;;1.40;;
11582;SDS011;34299;50.820;4.548;2024-01-15T10:49:23;4.90;;;1.20;;
11582;SDS011;34299;50.820;4.548;2024-01-15T10:51:52;4.60;;;1.40;;
11582;SDS011;34299;50.820;4.548;2024-01-15T10:54:19;2.90;;;1.30;;
11582;SDS011;34299;50.820;4.548;2024-01-15T10:56:48;2.63;;;1.23;;
11582;SDS011;34299;50.820;4.548;2024-01-15T10:59:17;4.27;;;1.73;;
11582;SDS011;34299;50.820;4.548;2024-01-15T11:01:46;3.60;;;1.33;;
11582;SDS011;34299;50.820;4.548;2024-01-15T11:04:14;2.13;;;1.67;;
11582;SDS011;34299;50.820;4.548;2024-01-15T11:06:42;6.27;;;1.40;;
11582;SDS011;34299;50.820;4.548;2024-01-15T11:09:10;1.63;;;1.17;;
11582;SDS011;34299;50.820;4.548;2024-01-15T11:11:40;3.60;;;1.13;;
11582;SDS011;34299;50.820;4.548;2024-01-15T11:14:08;3.70;;;1.40;;
11582;SDS011;34299;50.820;4.548;2024-01-15T11:19:35;6.03;;;1.53;;
11582;SDS011;34299;50.820;4.548;2024-01-15T11:22:06;3.83;;;1.47;;
11582;SDS011;34299;50.820;4.548;2024-01-15T11:24:38;2.60;;;1.93;;
11582;SDS011;34299;50.820;4.548;2024-01-15T11:27:06;5.57;;;1.60;;
11582;SDS011;34299;50.820;4.548;2024-01-15T11:29:34;3.77;;;1.20;;
11582;SDS011;34299;50.820;4.548;2024-01-15T11:32:01;2.63;;;1.20;;
11582;SDS011;34299;50.820;4.548;2024-01-15T11:34:50;2.07;;;1.47;;
11582;SDS011;34299;50.820;4.548;2024-01-15T11:37:23;2.97;;;1.20;;
11582;SDS011;34299;50.820;4.548;2024-01-15T11:39:51;1.50;;;0.97;;
11582;SDS011;34299;50.820;4.548;2024-01-15T11:42:19;4.00;;;1.73;;
11582;SDS011;34299;50.820;4.548;2024-01-15T11:44:47;1.80;;;1.17;;
11582;SDS011;34299;50.820;4.548;2024-01-15T11:47:16;1.07;;;1.03;;
11582;SDS011;34299;50.820;4.548;2024-01-15T11:50:06;2.40;;;0.90;;
11582;SDS011;34299;50.820;4.548;2024-01-15T11:52:35;5.77;;;1.40;;
11582;SDS011;34299;50.820;4.548;2024-01-15T11:55:11;1.23;;;1.13;;
11582;SDS011;34299;50.820;4.548;2024-01-15T11:57:41;3.53;;;1.13;;
11582;SDS011;34299;50.820;4.548;2024-01-15T12:00:11;2.53;;;0.90;;
11582;SDS011;34299;50.820;4.548;2024-01-15T12:02:41;2.60;;;1.20;;
11582;SDS011;34299;50.820;4.548;2024-01-15T12:05:09;3.83;;;1.00;;
11582;SDS011;34299;50.820;4.548;2024-01-15T12:07:37;6.33;;;0.97;;
11582;SDS011;34299;50.820;4.548;2024-01-15T12:10:07;4.87;;;1.60;;
11582;SDS011;34299;50.820;4.548;2024-01-15T12:12:42;4.83;;;1.10;;
11582;SDS011;34299;50.820;4.548;2024-01-15T12:15:20;4.00;;;1.30;;
11582;SDS011;34299;50.820;4.548;2024-01-15T12:17:48;1.63;;;1.03;;
11582;SDS011;34299;50.820;4.548;2024-01-15T12:20:16;4.87;;;1.07;;
11582;SDS011;34299;50.820;4.548;2024-01-15T12:22:44;3.30;;;1.17;;
11582;SDS011;34299;50.820;4.548;2024-01-15T12:25:12;3.40;;;1.30;;
11582;SDS011;34299;50.820;4.548;2024-01-15T12:27:39;1.97;;;1.30;;
11582;SDS011;34299;50.820;4.548;2024-01-15T12:30:06;2.87;;;0.87;;
11582;SDS011;34299;50.820;4.548;2024-01-15T12:32:36;4.37;;;1.10;;
11582;SDS011;34299;50.820;4.548;2024-01-15T12:35:05;2.73;;;1.20;;
11582;SDS011;34299;50.820;4.548;2024-01-15T12:37:34;3.83;;;1.10;;
11582;SDS011;34299;50.820;4.548;2024-01-15T12:40:02;4.07;;;1.47;;
11582;SDS011;34299;50.820;4.548;2024-01-15T12:42:29;0.87;;;0.73;;
11582;SDS011;34299;50.820;4.548;2024-01-15T12:44:56;3.10;;;1.17;;
11582;SDS011;34299;50.820;4.548;2024-01-15T12:47:23;4.90;;;1.40;;
11582;SDS011;34299;50.820;4.548;2024-01-15T12:49:51;2.03;;;0.90;;
11582;SDS011;34299;50.820;4.548;2024-01-15T12:52:21;2.20;;;1.27;;
11582;SDS011;34299;50.820;4.548;2024-01-15T12:54:48;3.07;;;1.20;;
11582;SDS011;34299;50.820;4.548;2024-01-15T12:57:15;1.47;;;1.17;;
11582;SDS011;34299;50.820;4.548;2024-01-15T12:59:42;2.93;;;1.33;;
11582;SDS011;34299;50.820;4.548;2024-01-15T13:02:10;1.93;;;0.90;;
11582;SDS011;34299;50.820;4.548;2024-01-15T13:04:38;5.50;;;1.57;;
11582;SDS011;34299;50.820;4.548;2024-01-15T13:07:07;1.03;;;0.93;;
11582;SDS011;34299;50.820;4.548;2024-01-15T13:09:36;0.97;;;0.93;;
11582;SDS011;34299;50.820;4.548;2024-01-15T13:12:03;8.00;;;1.30;;
11582;SDS011;34299;50.820;4.548;2024-01-15T13:14:30;1.70;;;1.10;;
11582;SDS011;34299;50.820;4.548;2024-01-15T13:16:57;5.40;;;1.40;;
11582;SDS011;34299;50.820;4.548;2024-01-15T13:19:25;3.57;;;1.17;;
11582;SDS011;34299;50.820;4.548;2024-01-15T13:21:52;1.07;;;0.90;;
11582;SDS011;34299;50.820;4.548;2024-01-15T13:24:21;4.97;;;1.63;;
11582;SDS011;34299;50.820;4.548;2024-01-15T13:26:50;2.27;;;1.50;;
11582;SDS011;34299;50.820;4.548;2024-01-15T13:29:17;2.63;;;1.33;;
11582;SDS011;34299;50.820;4.548;2024-01-15T13:31:44;4.07;;;1.50;;
11582;SDS011;34299;50.820;4.548;2024-01-15T13:34:12;3.23;;;1.03;;
11582;SDS011;34299;50.820;4.548;2024-01-15T13:36:39;3.60;;;1.03;;
11582;SDS011;34299;50.820;4.548;2024-01-15T13:39:06;5.00;;;1.10;;
11582;SDS011;34299;50.820;4.548;2024-01-15T13:41:34;4.63;;;1.47;;
11582;SDS011;34299;50.820;4.548;2024-01-15T13:44:03;3.93;;;1.00;;
11582;SDS011;34299;50.820;4.548;2024-01-15T13:46:30;5.20;;;1.50;;
11582;SDS011;34299;50.820;4.548;2024-01-15T13:48:57;1.47;;;0.90;;
11582;SDS011;34299;50.820;4.548;2024-01-15T13:51:24;3.97;;;1.37;;
11582;SDS011;34299;50.820;4.548;2024-01-15T13:53:51;6.20;;;1.40;;
11582;SDS011;34299;50.820;4.548;2024-01-15T13:56:18;3.57;;;1.43;;
11582;SDS011;34299;50.820;4.548;2024-01-15T13:58:45;2.87;;;1.17;;
11582;SDS011;34299;50.820;4.548;2024-01-15T14:01:16;3.53;;;0.97;;
11582;SDS011;34299;50.820;4.548;2024-01-15T14:03:43;0.90;;;0.83;;
11582;SDS011;34299;50.820;4.548;2024-01-15T14:06:10;1.10;;;1.10;;
11582;SDS011;34299;50.820;4.548;2024-01-15T14:08:37;1.20;;;0.77;;
11582;SDS011;34299;50.820;4.548;2024-01-15T14:11:04;0.40;;;0.40;;
11582;SDS011;34299;50.820;4.548;2024-01-15T14:13:32;0.40;;;0.40;;
11582;SDS011;34299;50.820;4.548;2024-01-15T14:15:59;0.40;;;0.40;;
11582;SDS011;34299;50.820;4.548;2024-01-15T14:18:27;0.73;;;0.50;;
11582;SDS011;34299;50.820;4.548;2024-01-15T14:20:54;1.10;;;0.60;;
11582;SDS011;34299;50.820;4.548;2024-01-15T14:23:24;0.60;;;0.60;;
11582;SDS011;34299;50.820;4.548;2024-01-15T14:25:51;0.93;;;0.87;;
11582;SDS011;34299;50.820;4.548;2024-01-15T14:28:18;1.50;;;0.80;;
11582;SDS011;34299;50.820;4.548;2024-01-15T14:30:45;0.50;;;0.50;;
11582;SDS011;34299;50.820;4.548;2024-01-15T14:33:12;2.60;;;1.00;;
11582;SDS011;34299;50.820;4.548;2024-01-15T14:35:40;1.03;;;1.03;;
11582;SDS011;34299;50.820;4.548;2024-01-15T14:38:07;1.23;;;0.90;;
11582;SDS011;34299;50.820;4.548;2024-01-15T14:40:34;1.33;;;1.00;;
11582;SDS011;34299;50.820;4.548;2024-01-15T14:43:02;1.50;;;1.40;;
11582;SDS011;34299;50.820;4.548;2024-01-15T14:45:29;3.33;;;2.07;;
11582;SDS011;34299;50.820;4.548;2024-01-15T14:47:56;2.87;;;1.73;;
11582;SDS011;34299;50.820;4.548;2024-01-15T14:50:23;1.40;;;1.30;;